createdAt,value
2019-02-23T00:01:47.419Z,101093.55
2019-02-23T00:04:18.217Z,101097.56
2019-02-23T00:06:49.092Z,101100.50
2019-02-23T00:09:20.003Z,101101.45
2019-02-23T00:11:50.900Z,101107.02
2019-02-23T00:14:22.539Z,101105.56
2019-02-23T00:16:53.450Z,101108.72
2019-02-23T00:19:25.304Z,101108.82
2019-02-23T00:21:57.085Z,101105.81
2019-02-23T00:24:27.876Z,101107.94
2019-02-23T00:26:58.919Z,101105.27
2019-02-23T00:29:29.866Z,101105.97
2019-02-23T00:32:00.772Z,101112.35
2019-02-23T00:34:31.629Z,101104.26
2019-02-23T00:37:02.599Z,101107.39
2019-02-23T00:39:33.407Z,101108.13
2019-02-23T00:42:04.384Z,101111.35
2019-02-23T00:44:35.189Z,101109.36
2019-02-23T00:47:06.075Z,101112.16
2019-02-23T00:49:36.866Z,101108.47
2019-02-23T00:52:08.508Z,101108.68
2019-02-23T00:54:39.455Z,101113.83
2019-02-23T00:57:10.351Z,101114.58
2019-02-23T00:59:41.239Z,101116.88
2019-02-23T01:02:12.245Z,101122.02
2019-02-23T01:04:44.016Z,101109.44
2019-02-23T01:07:15.028Z,101118.96
2019-02-23T01:09:45.889Z,101114.34
2019-02-23T01:12:16.971Z,101118.61
2019-02-23T01:14:47.870Z,101125.09
2019-02-23T01:17:18.981Z,101116.36
2019-02-23T01:19:49.850Z,101120.14
2019-02-23T01:22:20.843Z,101125.59
2019-02-23T01:24:51.837Z,101123.16
2019-02-23T01:27:22.839Z,101118.53
2019-02-23T01:29:53.623Z,101116.13
2019-02-23T01:32:24.612Z,101114.72
2019-02-23T01:34:55.482Z,101111.86
2019-02-23T01:37:26.483Z,101114.77
2019-02-23T01:39:57.377Z,101106.05
2019-02-23T01:42:28.456Z,101112.03
2019-02-23T01:44:59.345Z,101105.47
2019-02-23T01:47:30.594Z,101100.52
2019-02-23T01:50:01.551Z,101095.17
2019-02-23T01:52:32.534Z,101098.09
2019-02-23T01:55:03.403Z,101106.06
2019-02-23T01:57:34.385Z,101105.22
2019-02-23T02:00:06.315Z,101103.52
2019-02-23T02:02:37.910Z,101100.45
2019-02-23T02:05:08.819Z,101100.83
2019-02-23T02:07:41.526Z,101099.52
2019-02-23T02:10:12.626Z,101098.09
2019-02-23T02:12:43.617Z,101095.33
2019-02-23T02:15:15.333Z,101104.50
2019-02-23T02:17:46.340Z,101100.49
2019-02-23T02:20:17.295Z,101100.16
2019-02-23T02:22:48.201Z,101100.25
2019-02-23T02:25:19.126Z,101099.06
2019-02-23T02:27:50.116Z,101087.66
2019-02-23T02:30:21.172Z,101096.66
2019-02-23T02:32:52.136Z,101089.91
2019-02-23T02:35:22.931Z,101089.82
2019-02-23T02:37:53.872Z,101088.75
2019-02-23T02:40:24.708Z,101082.30
2019-02-23T02:42:55.976Z,101077.44
2019-02-23T02:45:26.886Z,101077.97
2019-02-23T02:47:57.775Z,101085.22
2019-02-23T02:50:28.770Z,101084.40
2019-02-23T02:53:00.034Z,101083.21
2019-02-23T02:55:30.971Z,101082.30
2019-02-23T02:58:01.997Z,101083.14
2019-02-23T03:00:32.946Z,101082.66
2019-02-23T03:03:04.042Z,101084.64
2019-02-23T03:05:34.907Z,101086.53
2019-02-23T03:08:06.279Z,101081.56
2019-02-23T03:10:37.111Z,101083.23
2019-02-23T03:13:07.998Z,101076.92
2019-02-23T03:15:38.790Z,101082.75
2019-02-23T03:18:09.779Z,101076.36
2019-02-23T03:20:40.650Z,101084.64
2019-02-23T03:23:11.531Z,101080.52
2019-02-23T03:25:42.313Z,101084.72
2019-02-23T03:28:13.307Z,101082.56
2019-02-23T03:30:44.211Z,101084.37
2019-02-23T03:33:15.088Z,101077.99
2019-02-23T03:35:45.978Z,101075.95
2019-02-23T03:38:16.912Z,101070.94
2019-02-23T03:40:47.954Z,101067.93
2019-02-23T03:43:18.896Z,101068.20
2019-02-23T03:45:49.638Z,101068.86
2019-02-23T03:48:20.634Z,101071.72
2019-02-23T03:50:51.416Z,101069.68
2019-02-23T03:53:22.670Z,101072.98
2019-02-23T03:55:53.579Z,101079.96
2019-02-23T03:58:24.591Z,101073.69
2019-02-23T04:00:55.371Z,101065.11
2019-02-23T04:03:26.364Z,101071.87
2019-02-23T04:05:57.249Z,101072.56
2019-02-23T04:08:28.146Z,101073.05
2019-02-23T04:10:58.927Z,101071.44
2019-02-23T04:13:30.100Z,101063.66
2019-02-23T04:16:00.898Z,101070.52
2019-02-23T04:18:31.882Z,101061.09
2019-02-23T04:21:02.989Z,101067.64
2019-02-23T04:23:34.371Z,101055.00
2019-02-23T04:26:05.157Z,101059.41
2019-02-23T04:28:36.047Z,101056.40
2019-02-23T04:31:06.822Z,101060.82
2019-02-23T04:33:37.721Z,101060.33
2019-02-23T04:36:08.606Z,101049.98
2019-02-23T04:38:39.592Z,101048.96
2019-02-23T04:41:10.607Z,101045.63
2019-02-23T04:43:43.997Z,101048.67
2019-02-23T04:46:13.998Z,101048.73
2019-02-23T04:48:44.936Z,101045.77
2019-02-23T04:51:15.773Z,101050.91
2019-02-23T04:53:46.729Z,101051.68
2019-02-23T04:56:17.677Z,101050.83
2019-02-23T04:58:48.552Z,101053.07
2019-02-23T05:01:19.328Z,101050.34
2019-02-23T05:03:50.283Z,101054.61
2019-02-23T05:06:21.113Z,101056.31
2019-02-23T05:08:52.106Z,101048.70
2019-02-23T05:11:22.987Z,101056.55
2019-02-23T05:13:53.980Z,101049.94
2019-02-23T05:16:24.754Z,101055.48
2019-02-23T05:18:55.622Z,101058.95
2019-02-23T05:21:27.051Z,101067.94
2019-02-23T05:23:58.219Z,101064.22
2019-02-23T05:26:29.015Z,101062.42
2019-02-23T05:29:00.000Z,101056.38
2019-02-23T05:31:31.196Z,101052.22
2019-02-23T05:34:02.227Z,101045.98
2019-02-23T05:36:33.079Z,101029.19
2019-02-23T05:39:04.751Z,101028.33
2019-02-23T05:41:35.792Z,101021.80
2019-02-23T05:44:06.849Z,101026.31
2019-02-23T05:46:37.650Z,101023.21
2019-02-23T05:49:09.669Z,101029.00
2019-02-23T05:51:40.449Z,101027.05
2019-02-23T05:54:11.453Z,101027.33
2019-02-23T05:56:42.341Z,101024.02
2019-02-23T05:59:13.237Z,101025.76
2019-02-23T06:01:44.011Z,101030.64
2019-02-23T06:04:15.014Z,101022.95
2019-02-23T06:06:45.978Z,101028.88
2019-02-23T06:09:16.881Z,101029.91
2019-02-23T06:11:47.563Z,101035.45
2019-02-23T06:14:18.741Z,101035.11
2019-02-23T06:16:49.623Z,101037.71
2019-02-23T06:19:20.615Z,101038.91
2019-02-23T06:21:53.987Z,101030.30
2019-02-23T06:24:24.878Z,101031.80
2019-02-23T06:26:55.837Z,101030.20
2019-02-23T06:29:26.723Z,101023.09
2019-02-23T06:31:57.636Z,101035.56
2019-02-23T06:34:28.537Z,101038.50
2019-02-23T06:36:59.409Z,101035.05
2019-02-23T06:39:30.448Z,101031.02
2019-02-23T06:42:01.268Z,101031.02
2019-02-23T06:44:32.170Z,101039.39
2019-02-23T06:47:03.210Z,101045.02
2019-02-23T06:49:34.214Z,101040.85
2019-02-23T06:52:05.230Z,101037.05
2019-02-23T06:54:36.039Z,101039.30
2019-02-23T06:57:06.924Z,101038.25
2019-02-23T06:59:37.999Z,101044.44
2019-02-23T07:02:08.900Z,101043.23
2019-02-23T07:04:39.956Z,101056.67
2019-02-23T07:07:11.902Z,101047.37
2019-02-23T07:09:42.892Z,101043.89
2019-02-23T07:12:13.661Z,101049.09
2019-02-23T07:14:44.561Z,101045.43
2019-02-23T07:17:15.333Z,101056.09
2019-02-23T07:19:46.234Z,101058.38
2019-02-23T07:22:17.006Z,101057.39
2019-02-23T07:24:47.844Z,101067.56
2019-02-23T07:27:18.673Z,101065.81
2019-02-23T07:29:49.572Z,101062.25
2019-02-23T07:32:20.350Z,101057.27
2019-02-23T07:34:51.256Z,101062.50
2019-02-23T07:37:22.221Z,101056.03
2019-02-23T07:39:53.252Z,101066.27
2019-02-23T07:42:24.313Z,101063.62
2019-02-23T07:44:55.302Z,101066.95
2019-02-23T07:47:26.112Z,101067.89
2019-02-23T07:49:57.995Z,101069.52
2019-02-23T07:52:28.880Z,101075.28
2019-02-23T07:54:59.777Z,101070.41
2019-02-23T07:57:30.664Z,101062.36
2019-02-23T08:00:01.540Z,101075.36
2019-02-23T08:02:32.552Z,101070.77
2019-02-23T08:05:03.932Z,101063.95
2019-02-23T08:07:35.135Z,101063.66
2019-02-23T08:10:06.534Z,101062.81
2019-02-23T08:12:37.213Z,101065.77
2019-02-23T08:15:08.607Z,101062.41
2019-02-23T08:17:39.515Z,101064.53
2019-02-23T08:20:10.514Z,101061.09
2019-02-23T08:22:41.383Z,101070.17
2019-02-23T08:25:12.254Z,101062.80
2019-02-23T08:27:43.050Z,101065.89
2019-02-23T08:30:14.149Z,101065.05
2019-02-23T08:32:44.696Z,101068.83
2019-02-23T08:35:15.633Z,101063.00
2019-02-23T08:37:46.399Z,101050.75
2019-02-23T08:40:17.378Z,101053.65
2019-02-23T08:42:48.266Z,101049.34
2019-02-23T08:45:19.203Z,101043.21
2019-02-23T08:47:50.083Z,101052.24
2019-02-23T08:50:21.102Z,101057.17
2019-02-23T08:52:52.083Z,101061.18
2019-02-23T08:55:22.965Z,101060.27
2019-02-23T08:57:53.942Z,101052.06
2019-02-23T09:00:24.958Z,101048.20
2019-02-23T09:02:56.225Z,101043.93
2019-02-23T09:05:27.228Z,101049.02
2019-02-23T09:07:58.651Z,101049.12
2019-02-23T09:10:29.515Z,101051.48
2019-02-23T09:13:01.343Z,101047.09
2019-02-23T09:15:32.220Z,101055.28
2019-02-23T09:18:03.209Z,101060.48
2019-02-23T09:20:33.988Z,101050.86
2019-02-23T09:23:04.795Z,101059.00
2019-02-23T09:25:35.962Z,101047.99
2019-02-23T09:28:06.862Z,101048.36
2019-02-23T09:30:37.787Z,101053.67
2019-02-23T09:33:10.062Z,101058.59
2019-02-23T09:35:40.853Z,101055.91
2019-02-23T09:38:11.744Z,101059.28
2019-02-23T09:40:42.731Z,101060.33
2019-02-23T09:43:13.561Z,101048.29
2019-02-23T09:45:44.568Z,101057.78
2019-02-23T09:48:15.559Z,101053.63
2019-02-23T09:50:46.552Z,101053.78
2019-02-23T09:53:17.710Z,101050.48
2019-02-23T09:55:49.313Z,101046.80
2019-02-23T09:58:20.236Z,101052.11
2019-02-23T10:00:51.241Z,101051.36
2019-02-23T10:03:22.205Z,101057.44
2019-02-23T10:05:53.078Z,101049.38
2019-02-23T10:08:24.129Z,101052.39
2019-02-23T10:10:57.506Z,101058.13
2019-02-23T10:13:27.597Z,101059.68
2019-02-23T10:15:58.855Z,101066.93
2019-02-23T10:18:29.687Z,101060.21
2019-02-23T10:21:00.950Z,101072.16
2019-02-23T10:23:31.747Z,101064.44
2019-02-23T10:26:02.719Z,101076.67
2019-02-23T10:28:33.551Z,101064.62
2019-02-23T10:31:04.842Z,101060.57
2019-02-23T10:33:38.468Z,101068.98
2019-02-23T10:36:08.358Z,101050.20
2019-02-23T10:38:39.235Z,101043.48
2019-02-23T10:41:10.426Z,101041.48
2019-02-23T10:43:41.650Z,101043.48
2019-02-23T10:46:12.635Z,101050.06
2019-02-23T10:48:45.543Z,101046.01
2019-02-23T10:51:16.527Z,101046.70
2019-02-23T10:53:47.528Z,101035.06
2019-02-23T10:56:18.710Z,101034.24
2019-02-23T10:58:49.627Z,101030.03
2019-02-23T11:01:20.687Z,101039.91
2019-02-23T11:03:51.512Z,101036.38
2019-02-23T11:06:22.500Z,101035.86
2019-02-23T11:08:56.540Z,101033.30
2019-02-23T11:11:27.799Z,101038.66
2019-02-23T11:13:58.638Z,101028.94
2019-02-23T11:16:30.527Z,101034.81
2019-02-23T11:19:02.972Z,101033.81
2019-02-23T11:21:33.850Z,101045.41
2019-02-23T11:24:05.874Z,101038.03
2019-02-23T11:26:36.853Z,101032.59
2019-02-23T11:29:07.734Z,101021.13
2019-02-23T11:31:39.293Z,101016.36
2019-02-23T11:34:10.165Z,101020.20
2019-02-23T11:36:41.802Z,101016.02
2019-02-23T11:39:12.627Z,101012.78
2019-02-23T11:41:43.510Z,101009.10
2019-02-23T11:44:14.453Z,101006.20
2019-02-23T11:47:00.009Z,101005.66
2019-02-23T11:49:18.131Z,101012.00
2019-02-23T11:51:49.403Z,101009.97
2019-02-23T11:54:20.399Z,101005.02
2019-02-23T11:56:51.455Z,101001.94
2019-02-23T11:59:22.290Z,100995.36
2019-02-23T12:01:53.372Z,100993.80
2019-02-23T12:04:24.168Z,100986.77
2019-02-23T12:06:55.132Z,100982.19
2019-02-23T12:09:25.937Z,100974.09
2019-02-23T12:11:56.821Z,100969.97
2019-02-23T12:14:27.615Z,100970.97
2019-02-23T12:16:58.487Z,100968.11
2019-02-23T12:19:29.377Z,100958.29
2019-02-23T12:22:00.276Z,100967.22
2019-02-23T12:24:31.165Z,100948.63
2019-02-23T12:27:02.052Z,100944.89
2019-02-23T12:29:32.840Z,100945.92
2019-02-23T12:32:03.815Z,100941.14
2019-02-23T12:34:34.602Z,100939.89
2019-02-23T12:37:05.578Z,100938.95
2019-02-23T12:39:36.475Z,100934.16
2019-02-23T12:42:07.263Z,100942.81
2019-02-23T12:44:38.058Z,100946.09
2019-02-23T12:47:08.947Z,100943.13
2019-02-23T12:49:39.835Z,100939.13
2019-02-23T12:52:10.896Z,100930.58
2019-02-23T12:54:41.797Z,100930.52
2019-02-23T12:57:12.801Z,100936.13
2019-02-23T12:59:43.587Z,100933.97
2019-02-23T13:02:14.564Z,100939.73
2019-02-23T13:04:46.487Z,100932.78
2019-02-23T13:07:17.384Z,100930.53
2019-02-23T13:09:51.439Z,100936.08
2019-02-23T13:12:36.152Z,100938.84
2019-02-23T13:15:32.524Z,100935.48
2019-02-23T13:18:23.638Z,100934.78
2019-02-23T13:21:30.312Z,100937.23
2019-02-23T13:24:14.003Z,100945.69
2019-02-23T13:27:07.005Z,100925.27
2019-02-23T13:30:08.051Z,100923.61
2019-02-23T13:33:16.773Z,100921.72
2019-02-23T13:36:21.664Z,100925.47
2019-02-23T13:39:35.863Z,100922.84
2019-02-23T13:42:49.831Z,100915.17
2019-02-23T13:46:13.381Z,100919.23
2019-02-23T13:49:21.903Z,100921.03
2019-02-23T13:52:15.074Z,100916.39
2019-02-23T13:55:37.813Z,100920.14
2019-02-23T13:58:18.992Z,100912.67
2019-02-23T14:01:31.465Z,100898.11
2019-02-23T14:04:55.004Z,100904.36
2019-02-23T14:07:50.131Z,100915.95
2019-02-23T14:11:04.854Z,100895.33
2019-02-23T14:14:16.572Z,100895.51
2019-02-23T14:17:25.431Z,100890.09
2019-02-23T14:20:19.348Z,100887.26
2019-02-23T14:23:55.208Z,100890.26
2019-02-23T14:27:34.551Z,100890.80
2019-02-23T14:30:58.125Z,100878.28
2019-02-23T14:33:51.643Z,100890.80
2019-02-23T14:36:41.487Z,100884.58
2019-02-23T14:39:46.351Z,100887.75
2019-02-23T14:42:56.266Z,100886.06
2019-02-23T14:46:06.543Z,100889.87
2019-02-23T14:48:57.687Z,100891.36
2019-02-23T14:52:15.564Z,100883.31
2019-02-23T14:55:09.617Z,100881.64
2019-02-23T14:58:27.851Z,100879.25
2019-02-23T15:01:33.144Z,100870.69
2019-02-23T15:04:35.067Z,100869.03
2019-02-23T15:07:43.016Z,100864.77
2019-02-23T15:10:36.843Z,100857.17
2019-02-23T15:13:34.058Z,100842.81
2019-02-23T15:16:51.577Z,100847.83
2019-02-23T15:20:11.312Z,100837.47
2019-02-23T15:23:18.151Z,100840.17
2019-02-23T15:26:24.507Z,100832.07
2019-02-23T15:29:31.935Z,100832.72
2019-02-23T15:32:40.114Z,100821.27
2019-02-23T15:35:56.621Z,100824.16
2019-02-23T15:38:54.919Z,100823.17
2019-02-23T15:41:59.206Z,100825.43
2019-02-23T15:45:01.133Z,100824.42
2019-02-23T15:48:21.585Z,100820.08
2019-02-23T15:50:52.582Z,100820.37
2019-02-23T15:53:23.401Z,100813.16
2019-02-23T15:55:54.255Z,100821.17
2019-02-23T15:58:25.148Z,100807.08
2019-02-23T16:00:56.531Z,100814.22
2019-02-23T16:03:27.414Z,100813.27
2019-02-23T16:05:58.591Z,100807.20
2019-02-23T16:08:29.418Z,100814.81
2019-02-23T16:11:00.404Z,100818.30
2019-02-23T16:13:31.192Z,100812.98
2019-02-23T16:16:02.165Z,100814.43
2019-02-23T16:18:32.951Z,100814.94
2019-02-23T16:21:03.801Z,100824.63
2019-02-23T16:23:35.809Z,100823.55
2019-02-23T16:26:06.692Z,100815.64
2019-02-23T16:28:37.567Z,100828.17
2019-02-23T16:31:08.464Z,100822.28
2019-02-23T16:33:39.747Z,100825.41
2019-02-23T16:36:10.558Z,100828.91
2019-02-23T16:38:41.731Z,100843.69
2019-02-23T16:41:12.542Z,100844.89
2019-02-23T16:43:43.313Z,100847.46
2019-02-23T16:46:14.190Z,100844.92
2019-02-23T16:48:45.079Z,100845.67
2019-02-23T16:51:15.869Z,100854.01
2019-02-23T16:53:48.923Z,100854.51
2019-02-23T16:56:19.400Z,100855.41
2019-02-23T16:58:50.287Z,100860.37
2019-02-23T17:01:21.071Z,100862.25
2019-02-23T17:03:51.968Z,100871.94
2019-02-23T17:06:22.922Z,100863.56
2019-02-23T17:08:54.015Z,100874.37
2019-02-23T17:11:24.912Z,100879.62
2019-02-23T17:13:55.950Z,100877.12
2019-02-23T17:16:26.892Z,100884.89
2019-02-23T17:18:58.699Z,100878.69
2019-02-23T17:21:29.490Z,100880.91
2019-02-23T17:24:00.416Z,100886.67
2019-02-23T17:26:31.175Z,100890.72
2019-02-23T17:29:02.222Z,100901.85
2019-02-23T17:31:33.050Z,100896.84
2019-02-23T17:34:03.969Z,100898.86
2019-02-23T17:36:34.709Z,100902.77
2019-02-23T17:39:06.241Z,100898.73
2019-02-23T17:41:38.731Z,100904.13
2019-02-23T17:44:09.933Z,100908.02
2019-02-23T17:46:40.924Z,100908.69
2019-02-23T17:49:11.864Z,100909.05
2019-02-23T17:51:42.702Z,100917.11
2019-02-23T17:54:13.701Z,100915.09
2019-02-23T17:56:44.586Z,100915.45
2019-02-23T17:59:15.653Z,100928.54
2019-02-23T18:01:46.463Z,100924.85
2019-02-23T18:04:17.434Z,100919.16
2019-02-23T18:06:48.222Z,100925.70
2019-02-23T18:09:19.247Z,100923.85
2019-02-23T18:11:50.122Z,100933.27
2019-02-23T18:14:21.504Z,100932.42
2019-02-23T18:16:52.297Z,100937.30
2019-02-23T18:19:23.648Z,100939.16
2019-02-23T18:21:54.485Z,100944.85
2019-02-23T18:24:25.664Z,100946.38
2019-02-23T18:26:56.461Z,100939.98
2019-02-23T18:29:27.507Z,100939.30
2019-02-23T18:31:58.435Z,100940.67
2019-02-23T18:34:29.442Z,100944.85
2019-02-23T18:37:00.218Z,100945.69
2019-02-23T18:39:32.134Z,100952.41
2019-02-23T18:42:03.014Z,100954.75
2019-02-23T18:44:33.993Z,100958.77
2019-02-23T18:47:04.906Z,100965.50
2019-02-23T18:49:35.958Z,100958.94
2019-02-23T18:52:06.763Z,100961.95
2019-02-23T18:54:37.804Z,100963.61
2019-02-23T18:57:08.658Z,100972.17
2019-02-23T18:59:39.697Z,100971.16
2019-02-23T19:02:10.641Z,100970.83
2019-02-23T19:04:42.724Z,100966.46
2019-02-23T19:07:13.618Z,100964.41
2019-02-23T19:09:44.781Z,100962.73
2019-02-23T19:12:17.151Z,100966.42
2019-02-23T19:14:47.898Z,100967.92
2019-02-23T19:17:18.762Z,100963.53
2019-02-23T19:19:49.707Z,100965.54
2019-02-23T19:22:20.517Z,100964.98
2019-02-23T19:24:51.327Z,100966.31
2019-02-23T19:27:22.497Z,100964.45
2019-02-23T19:29:53.310Z,100964.93
2019-02-23T19:32:24.253Z,100962.37
2019-02-23T19:34:55.074Z,100953.81
2019-02-23T19:37:26.062Z,100957.20
2019-02-23T19:39:56.965Z,100948.09
2019-02-23T19:42:27.858Z,100955.16
2019-02-23T19:44:58.743Z,100962.14
2019-02-23T19:47:33.518Z,100959.46
2019-02-23T19:50:14.635Z,100960.45
2019-02-23T19:52:45.675Z,100966.86
2019-02-23T19:55:17.442Z,100969.05
2019-02-23T19:57:48.437Z,100972.58
2019-02-23T20:00:20.237Z,100976.91
2019-02-23T20:02:51.335Z,100977.91
2019-02-23T20:05:22.221Z,100982.90
2019-02-23T20:07:53.274Z,100978.84
2019-02-23T20:10:24.081Z,100980.67
2019-02-23T20:12:55.250Z,100982.34
2019-02-23T20:15:26.161Z,100984.31
2019-02-23T20:17:57.069Z,100982.84
2019-02-23T20:20:27.853Z,100983.95
2019-02-23T20:22:58.741Z,100985.23
2019-02-23T20:25:29.631Z,100983.03
2019-02-23T20:28:00.517Z,100979.30
2019-02-23T20:30:31.503Z,100990.44
2019-02-23T20:33:03.591Z,100984.55
2019-02-23T20:35:34.599Z,100972.45
2019-02-23T20:38:05.497Z,100975.98
2019-02-23T20:40:36.274Z,100980.69
2019-02-23T20:43:07.214Z,100972.81
2019-02-23T20:45:38.162Z,100965.47
2019-02-23T20:48:09.247Z,100962.79
2019-02-23T20:50:40.284Z,100958.84
2019-02-23T20:53:11.495Z,100966.52
2019-02-23T20:55:42.446Z,100960.52
2019-02-23T20:58:14.384Z,100962.50
2019-02-23T21:00:45.217Z,100957.41
2019-02-23T21:03:16.111Z,100956.08
2019-02-23T21:05:47.006Z,100938.95
2019-02-23T21:08:17.880Z,100945.36
2019-02-23T21:10:48.890Z,100949.91
2019-02-23T21:13:20.758Z,100951.25
2019-02-23T21:15:51.678Z,100942.89
2019-02-23T21:18:23.692Z,100944.97
2019-02-23T21:20:54.489Z,100959.41
2019-02-23T21:23:25.555Z,100957.33
2019-02-23T21:25:56.606Z,100961.66
2019-02-23T21:28:27.437Z,100963.05
2019-02-23T21:30:58.324Z,100968.98
2019-02-23T21:33:29.225Z,100961.28
2019-02-23T21:36:00.115Z,100966.09
2019-02-23T21:38:31.094Z,100967.45
2019-02-23T21:41:03.015Z,100973.50
2019-02-23T21:43:33.939Z,100979.50
2019-02-23T21:46:06.198Z,100984.41
2019-02-23T21:48:37.209Z,100981.22
2019-02-23T21:51:07.911Z,100975.87
2019-02-23T21:53:38.887Z,100975.92
2019-02-23T21:56:13.308Z,100973.28
2019-02-23T21:58:45.286Z,100982.70
2019-02-23T22:01:20.593Z,100979.23
2019-02-23T22:03:54.202Z,100980.52
2019-02-23T22:06:25.098Z,100981.66
2019-02-23T22:08:56.009Z,100979.34
2019-02-23T22:11:26.780Z,100978.16
2019-02-23T22:13:57.636Z,100978.77
2019-02-23T22:16:28.605Z,100982.67
2019-02-23T22:18:59.363Z,100987.73
2019-02-23T22:21:30.351Z,100988.28
2019-02-23T22:24:01.263Z,100983.03
2019-02-23T22:26:33.362Z,100993.09
2019-02-23T22:29:04.368Z,100988.38
2019-02-23T22:31:35.327Z,100985.89
2019-02-23T22:34:06.274Z,100986.19
2019-02-23T22:36:37.180Z,100979.75
2019-02-23T22:39:08.754Z,100982.74
2019-02-23T22:41:40.083Z,100982.44
2019-02-23T22:44:11.085Z,100974.17
2019-02-23T22:46:42.058Z,100981.04
2019-02-23T22:49:13.134Z,100976.17
2019-02-23T22:51:43.934Z,100983.80
2019-02-23T22:54:14.904Z,100985.84
2019-02-23T22:56:45.803Z,100986.55
2019-02-23T22:59:16.786Z,100994.09
2019-02-23T23:01:47.797Z,100990.16
2019-02-23T23:04:18.940Z,100991.09
2019-02-23T23:06:50.758Z,100998.48
2019-02-23T23:09:21.519Z,101002.19
2019-02-23T23:11:52.308Z,100999.70
2019-02-23T23:14:23.196Z,100998.55
2019-02-23T23:16:55.683Z,100996.53
2019-02-23T23:19:26.720Z,101002.36
2019-02-23T23:21:57.609Z,101000.80
2019-02-23T23:24:28.487Z,101000.22
2019-02-23T23:27:00.467Z,101005.53
2019-02-23T23:29:31.283Z,100999.91
2019-02-23T23:32:02.317Z,100987.02
2019-02-23T23:34:33.250Z,100995.42
2019-02-23T23:37:04.151Z,101001.70
2019-02-23T23:39:34.989Z,100993.61
2019-02-23T23:42:05.875Z,101000.08
2019-02-23T23:44:36.848Z,100991.22
2019-02-23T23:47:07.664Z,101002.42
2019-02-23T23:49:38.550Z,100997.91
2019-02-23T23:52:09.434Z,100999.14
2019-02-23T23:54:40.493Z,101001.66
2019-02-23T23:57:11.314Z,100991.23
2019-02-23T23:59:42.174Z,100995.52
